Time;durP1;ratioP1;P1;durP2;ratioP2;P2;SDS_P1;SDS_P2;PMS_P1;PMS_P2;Temp;Humidity;BMP_temperature;BMP_pressure;BME280_temperature;BME280_humidity;BME280_pressure;Samples;Min_cycle;Max_cycle;Signal;HPM_P1;HPM_P2
2022/10/07 00:00:55;;;;;;;15.90;5.80;;;;;;;;;;5032240;28;20021;-76
2022/10/07 00:03:22;;;;;;;14.43;5.28;;;;;;;;;;5047433;28;20021;-76
2022/10/07 00:06:02;;;;;;;15.85;5.85;;;;;;;;;;5031990;28;20025;-76
2022/10/07 00:08:28;;;;;;;11.27;5.82;;;;;;;;;;5030644;28;20025;-77
2022/10/07 00:10:55;;;;;;;15.95;5.65;;;;;;;;;;5031967;28;20375;-76
2022/10/07 00:13:21;;;;;;;17.48;5.90;;;;;;;;;;5031768;28;20425;-76
2022/10/07 00:15:47;;;;;;;12.93;5.72;;;;;;;;;;5031975;28;20020;-76
2022/10/07 00:18:14;;;;;;;12.68;5.88;;;;;;;;;;5031821;28;20049;-76
2022/10/07 00:20:40;;;;;;;13.00;6.05;;;;;;;;;;5047156;28;20017;-76
2022/10/07 00:23:08;;;;;;;16.38;5.85;;;;;;;;;;5031495;28;20043;-76
2022/10/07 00:25:37;;;;;;;12.73;5.63;;;;;;;;;;5032107;28;20018;-76
2022/10/07 00:28:04;;;;;;;14.75;5.60;;;;;;;;;;5031729;28;20021;-76
2022/10/07 00:30:31;;;;;;;17.23;5.90;;;;;;;;;;5032212;28;20017;-76
2022/10/07 00:32:57;;;;;;;17.02;5.88;;;;;;;;;;5051522;28;20025;-76
2022/10/07 00:35:23;;;;;;;19.25;5.80;;;;;;;;;;5035312;28;20020;-76
2022/10/07 00:37:50;;;;;;;26.25;6.38;;;;;;;;;;5035729;28;20045;-76
2022/10/07 00:40:16;;;;;;;14.25;6.30;;;;;;;;;;5035552;28;20027;-76
2022/10/07 00:42:43;;;;;;;14.93;5.68;;;;;;;;;;5034665;28;20040;-76
2022/10/07 00:45:18;;;;;;;11.77;5.90;;;;;;;;;;5035615;28;20018;-76
2022/10/07 00:47:46;;;;;;;17.95;6.32;;;;;;;;;;5035679;28;20022;-76
2022/10/07 00:50:18;;;;;;;11.38;5.88;;;;;;;;;;5035193;28;20025;-76
2022/10/07 00:52:46;;;;;;;18.52;6.53;;;;;;;;;;5035266;28;20035;-76
2022/10/07 00:55:16;;;;;;;17.15;5.80;;;;;;;;;;5035131;28;20039;-76
2022/10/07 00:57:42;;;;;;;12.15;5.65;;;;;;;;;;5034126;28;20030;-76
2022/10/07 01:00:09;;;;;;;11.32;6.40;;;;;;;;;;5035197;28;20032;-76
2022/10/07 01:02:35;;;;;;;14.18;6.45;;;;;;;;;;5035204;28;20026;-76
2022/10/07 01:05:03;;;;;;;18.58;5.88;;;;;;;;;;5034875;28;20025;-76
2022/10/07 01:07:29;;;;;;;10.73;6.18;;;;;;;;;;5035159;28;20032;-77
2022/10/07 01:09:58;;;;;;;12.32;6.43;;;;;;;;;;5035203;28;20032;-76
2022/10/07 01:12:43;;;;;;;17.90;6.30;;;;;;;;;;5035223;28;20091;-76
2022/10/07 01:15:09;;;;;;;12.60;6.43;;;;;;;;;;5034820;28;20030;-77
2022/10/07 01:17:50;;;;;;;18.75;6.88;;;;;;;;;;5035009;28;20038;-76
2022/10/07 01:20:22;;;;;;;14.60;6.35;;;;;;;;;;5034770;28;20017;-76
2022/10/07 01:22:58;;;;;;;19.02;7.10;;;;;;;;;;5034861;28;20575;-77
2022/10/07 01:25:40;;;;;;;15.68;6.70;;;;;;;;;;5034926;28;20022;-76
2022/10/07 01:28:18;;;;;;;14.90;7.57;;;;;;;;;;5033670;28;20029;-77
2022/10/07 01:30:47;;;;;;;16.60;6.82;;;;;;;;;;5034653;28;20032;-76
2022/10/07 01:33:17;;;;;;;14.32;6.95;;;;;;;;;;5033407;28;20030;-76
2022/10/07 01:35:46;;;;;;;13.68;7.50;;;;;;;;;;5034673;28;20028;-76
2022/10/07 01:38:14;;;;;;;11.88;6.45;;;;;;;;;;5050036;28;20047;-76
2022/10/07 01:40:50;;;;;;;16.60;6.45;;;;;;;;;;5034317;28;20021;-76
2022/10/07 01:43:18;;;;;;;10.73;6.85;;;;;;;;;;5034222;28;20036;-77
2022/10/07 01:45:44;;;;;;;14.10;6.63;;;;;;;;;;5034478;28;20486;-76
2022/10/07 01:48:10;;;;;;;11.82;6.57;;;;;;;;;;5033979;28;20033;-76
2022/10/07 01:50:37;;;;;;;15.90;7.30;;;;;;;;;;5034330;28;20474;-77
2022/10/07 01:53:16;;;;;;;12.20;6.93;;;;;;;;;;5033172;28;20028;-76
2022/10/07 01:55:49;;;;;;;13.40;6.75;;;;;;;;;;5034231;28;20025;-76
2022/10/07 01:58:18;;;;;;;16.42;6.20;;;;;;;;;;5034371;28;20032;-76
2022/10/07 02:00:53;;;;;;;16.67;7.10;;;;;;;;;;5034068;28;20409;-76
2022/10/07 02:03:46;;;;;;;18.67;6.38;;;;;;;;;;5049045;28;20044;-76
2022/10/07 02:06:12;;;;;;;14.60;6.30;;;;;;;;;;5034262;28;20032;-76
2022/10/07 02:08:41;;;;;;;11.88;6.13;;;;;;;;;;5034008;28;20020;-76
2022/10/07 02:11:14;;;;;;;12.73;6.05;;;;;;;;;;5034262;28;20027;-76
2022/10/07 02:14:00;;;;;;;12.32;6.65;;;;;;;;;;5032764;28;20518;-76
2022/10/07 02:16:26;;;;;;;8.85;6.00;;;;;;;;;;5033904;28;20413;-76
2022/10/07 02:18:53;;;;;;;10.68;6.20;;;;;;;;;;5033338;28;20040;-76
2022/10/07 02:21:21;;;;;;;15.23;8.00;;;;;;;;;;5033740;28;20032;-76
2022/10/07 02:23:48;;;;;;;17.63;7.85;;;;;;;;;;5033882;28;20540;-76
2022/10/07 02:26:17;;;;;;;11.25;7.05;;;;;;;;;;5034001;28;20029;-76
2022/10/07 02:28:44;;;;;;;13.50;6.60;;;;;;;;;;5033749;28;20035;-76
2022/10/07 02:31:14;;;;;;;12.77;6.60;;;;;;;;;;5033302;28;20397;-76
2022/10/07 02:33:41;;;;;;;14.65;6.05;;;;;;;;;;5033673;28;20402;-77
2022/10/07 02:36:11;;;;;;;14.38;6.70;;;;;;;;;;5033499;28;20029;-76
2022/10/07 02:38:38;;;;;;;13.55;6.72;;;;;;;;;;5033337;28;20036;-76
2022/10/07 02:41:30;;;;;;;13.90;6.68;;;;;;;;;;5033193;28;20025;-74
2022/10/07 02:44:15;;;;;;;14.23;6.40;;;;;;;;;;5031979;28;20490;-77
2022/10/07 02:46:47;;;;;;;10.90;6.07;;;;;;;;;;5032887;28;20029;-77
2022/10/07 02:49:15;;;;;;;11.38;6.38;;;;;;;;;;5033370;28;20029;-76
2022/10/07 02:52:04;;;;;;;13.10;6.68;;;;;;;;;;5033178;28;20029;-76
2022/10/07 02:54:33;;;;;;;15.38;6.95;;;;;;;;;;5032541;28;20032;-76
2022/10/07 02:57:00;;;;;;;12.77;6.40;;;;;;;;;;5033045;28;20381;-76
2022/10/07 02:59:27;;;;;;;10.63;6.97;;;;;;;;;;5048435;28;20045;-76
2022/10/07 03:01:56;;;;;;;10.35;6.40;;;;;;;;;;5032581;28;20437;-76
2022/10/07 03:04:23;;;;;;;15.75;7.05;;;;;;;;;;5033101;28;20021;-76
2022/10/07 03:06:49;;;;;;;12.00;6.60;;;;;;;;;;5032907;28;20014;-76
2022/10/07 03:09:16;;;;;;;12.95;7.13;;;;;;;;;;5032698;28;20026;-77
2022/10/07 03:11:42;;;;;;;14.93;6.82;;;;;;;;;;5032892;28;20020;-76
2022/10/07 03:14:09;;;;;;;13.27;7.10;;;;;;;;;;5047994;28;20046;-76
2022/10/07 03:16:35;;;;;;;11.77;6.95;;;;;;;;;;5047960;28;20030;-77
2022/10/07 03:19:01;;;;;;;14.68;7.43;;;;;;;;;;5032496;28;20036;-76
2022/10/07 03:21:28;;;;;;;12.52;6.57;;;;;;;;;;5032658;28;20055;-76
2022/10/07 03:23:55;;;;;;;12.73;7.18;;;;;;;;;;5032539;28;20380;-76
2022/10/07 03:26:21;;;;;;;14.95;7.32;;;;;;;;;;5032703;28;20036;-76
2022/10/07 03:28:47;;;;;;;9.23;6.18;;;;;;;;;;5032475;28;20032;-76
2022/10/07 03:31:14;;;;;;;14.65;6.65;;;;;;;;;;5032057;28;20026;-76
2022/10/07 03:33:41;;;;;;;13.48;6.57;;;;;;;;;;5032507;28;20040;-76
2022/10/07 03:36:07;;;;;;;16.85;7.50;;;;;;;;;;5032292;28;20029;-76
2022/10/07 03:38:34;;;;;;;10.77;6.35;;;;;;;;;;5032217;28;20029;-76
2022/10/07 03:41:03;;;;;;;10.55;6.40;;;;;;;;;;5032507;28;20246;-76
2022/10/07 03:43:29;;;;;;;11.80;6.65;;;;;;;;;;5031092;28;20095;-77
2022/10/07 03:45:59;;;;;;;12.80;6.88;;;;;;;;;;5031964;28;20032;-77
2022/10/07 03:48:25;;;;;;;13.05;6.45;;;;;;;;;;5032264;28;20030;-76
2022/10/07 03:50:52;;;;;;;15.65;7.07;;;;;;;;;;5032203;28;20024;-76
2022/10/07 03:53:19;;;;;;;14.68;6.65;;;;;;;;;;5032181;28;20033;-76
2022/10/07 03:55:45;;;;;;;13.43;6.82;;;;;;;;;;5032268;28;20021;-76
2022/10/07 03:58:12;;;;;;;13.07;6.55;;;;;;;;;;5032121;28;20087;-76
2022/10/07 04:00:40;;;;;;;13.50;7.20;;;;;;;;;;5031622;28;20017;-76
2022/10/07 04:03:07;;;;;;;14.73;7.63;;;;;;;;;;5032212;28;20482;-76
2022/10/07 04:05:34;;;;;;;13.05;6.25;;;;;;;;;;5031844;28;20029;-76
2022/10/07 04:08:00;;;;;;;12.93;7.18;;;;;;;;;;5031939;28;20032;-76
2022/10/07 04:10:27;;;;;;;10.23;6.28;;;;;;;;;;5047281;28;20393;-76
2022/10/07 04:12:53;;;;;;;12.82;6.70;;;;;;;;;;5031472;28;20052;-76
2022/10/07 04:15:20;;;;;;;12.93;6.90;;;;;;;;;;5032102;28;20029;-77
2022/10/07 04:17:47;;;;;;;14.65;6.55;;;;;;;;;;5047240;28;20040;-76
2022/10/07 04:20:14;;;;;;;18.95;6.82;;;;;;;;;;5031808;28;20025;-76
2022/10/07 04:22:41;;;;;;;11.57;6.80;;;;;;;;;;5031850;28;20036;-77
2022/10/07 04:27:54;;;;;;;14.43;6.97;;;;;;;;;;5031440;28;20033;-76
2022/10/07 04:30:21;;;;;;;16.92;7.50;;;;;;;;;;5032051;28;20032;-77
2022/10/07 04:32:49;;;;;;;11.02;6.97;;;;;;;;;;5031710;28;20025;-77
2022/10/07 04:35:16;;;;;;;11.77;7.25;;;;;;;;;;5031773;28;20036;-77
2022/10/07 04:37:42;;;;;;;17.55;7.47;;;;;;;;;;5031854;28;20036;-76
2022/10/07 04:40:09;;;;;;;14.73;8.50;;;;;;;;;;5031364;28;20063;-75
2022/10/07 04:45:21;;;;;;;12.52;7.10;;;;;;;;;;5031736;28;20025;-77
2022/10/07 04:47:47;;;;;;;13.05;7.18;;;;;;;;;;5031610;28;20037;-76
2022/10/07 04:50:13;;;;;;;16.73;7.32;;;;;;;;;;5031818;28;20448;-76
2022/10/07 04:52:41;;;;;;;12.35;7.18;;;;;;;;;;5031451;28;20486;-76
2022/10/07 04:55:08;;;;;;;14.43;7.28;;;;;;;;;;5031622;28;20547;-76
2022/10/07 04:57:34;;;;;;;11.52;6.75;;;;;;;;;;5030993;28;20079;-76
2022/10/07 05:00:01;;;;;;;12.35;6.47;;;;;;;;;;5031989;28;20025;-76
2022/10/07 05:02:27;;;;;;;16.45;6.57;;;;;;;;;;5031573;28;20029;-76
2022/10/07 05:04:53;;;;;;;15.45;6.60;;;;;;;;;;5031758;28;20025;-77
2022/10/07 05:07:20;;;;;;;12.15;6.65;;;;;;;;;;5031493;28;20029;-77
2022/10/07 05:09:46;;;;;;;10.73;6.25;;;;;;;;;;5031433;28;20032;-76
2022/10/07 05:12:12;;;;;;;12.65;7.40;;;;;;;;;;5030989;28;20026;-76
2022/10/07 05:14:42;;;;;;;10.30;6.28;;;;;;;;;;5031387;28;20025;-76
2022/10/07 05:17:08;;;;;;;16.35;7.72;;;;;;;;;;5032573;28;20025;-76
2022/10/07 05:19:34;;;;;;;17.10;8.35;;;;;;;;;;5034811;28;20524;-76
2022/10/07 05:22:01;;;;;;;21.05;9.23;;;;;;;;;;5035151;28;20032;-76
2022/10/07 05:24:28;;;;;;;21.17;9.10;;;;;;;;;;5050340;28;20508;-76
2022/10/07 05:26:55;;;;;;;15.85;9.00;;;;;;;;;;5034598;28;20397;-76
2022/10/07 05:29:22;;;;;;;17.20;8.20;;;;;;;;;;5034979;28;20025;-76
2022/10/07 05:31:48;;;;;;;21.92;9.20;;;;;;;;;;5034699;28;20029;-76
2022/10/07 05:34:15;;;;;;;24.55;9.60;;;;;;;;;;5034794;28;20551;-76
2022/10/07 05:36:42;;;;;;;21.98;8.32;;;;;;;;;;5034624;28;20010;-76
2022/10/07 05:39:09;;;;;;;16.30;8.05;;;;;;;;;;5034645;28;20033;-73
2022/10/07 05:41:37;;;;;;;19.73;8.57;;;;;;;;;;5034033;28;20474;-76
2022/10/07 05:44:03;;;;;;;20.50;8.80;;;;;;;;;;5034377;28;20033;-76
2022/10/07 05:46:30;;;;;;;17.30;8.25;;;;;;;;;;5034794;28;20029;-76
2022/10/07 05:48:56;;;;;;;18.38;6.78;;;;;;;;;;5034408;28;20031;-76
2022/10/07 05:51:24;;;;;;;14.07;6.38;;;;;;;;;;5034205;28;20025;-76
2022/10/07 05:53:53;;;;;;;15.05;5.63;;;;;;;;;;5034271;28;20100;-76
2022/10/07 05:56:23;;;;;;;13.85;5.93;;;;;;;;;;5033971;28;20021;-76
2022/10/07 05:58:50;;;;;;;15.30;5.50;;;;;;;;;;5034161;28;20041;-76
2022/10/07 06:01:17;;;;;;;11.73;6.00;;;;;;;;;;5049555;28;20516;-75
2022/10/07 06:03:48;;;;;;;12.40;5.93;;;;;;;;;;5034067;28;20033;-76
2022/10/07 06:06:14;;;;;;;11.02;6.20;;;;;;;;;;5032955;28;20036;-76
2022/10/07 06:08:40;;;;;;;9.38;5.13;;;;;;;;;;5033696;28;20067;-76
2022/10/07 06:13:54;;;;;;;8.65;6.00;;;;;;;;;;5033342;28;20395;-76
2022/10/07 06:16:21;;;;;;;20.65;6.65;;;;;;;;;;5033506;28;20029;-76
2022/10/07 06:18:49;;;;;;;15.45;6.35;;;;;;;;;;5033513;28;20082;-76
2022/10/07 06:21:15;;;;;;;11.05;5.88;;;;;;;;;;5033702;28;20040;-76
2022/10/07 06:23:42;;;;;;;12.95;5.97;;;;;;;;;;5031989;28;20021;-76
2022/10/07 06:26:09;;;;;;;16.40;5.75;;;;;;;;;;5033783;28;20030;-75
2022/10/07 06:28:37;;;;;;;18.50;6.70;;;;;;;;;;5032011;28;20021;-76
2022/10/07 06:31:08;;;;;;;12.40;6.80;;;;;;;;;;5032171;28;20041;-76
2022/10/07 06:33:34;;;;;;;15.10;7.50;;;;;;;;;;5033568;28;20466;-76
2022/10/07 06:36:07;;;;;;;15.60;7.25;;;;;;;;;;5029308;28;20022;-76
2022/10/07 06:38:34;;;;;;;14.13;7.32;;;;;;;;;;5031826;28;20049;-76
2022/10/07 06:41:01;;;;;;;13.55;6.85;;;;;;;;;;5033059;28;20401;-76
2022/10/07 06:43:27;;;;;;;13.02;6.32;;;;;;;;;;5033070;28;20052;-76
2022/10/07 06:45:57;;;;;;;18.45;6.60;;;;;;;;;;5033227;28;20125;-76
2022/10/07 06:48:24;;;;;;;13.88;6.95;;;;;;;;;;5033019;28;20021;-76
2022/10/07 06:50:51;;;;;;;18.05;7.60;;;;;;;;;;5032877;28;20021;-76
2022/10/07 06:53:18;;;;;;;14.95;7.53;;;;;;;;;;5032676;28;20028;-74
2022/10/07 06:55:44;;;;;;;14.73;7.90;;;;;;;;;;5032966;28;20026;-74
2022/10/07 06:58:11;;;;;;;15.43;7.38;;;;;;;;;;5031985;28;20482;-75
2022/10/07 07:00:38;;;;;;;26.88;8.32;;;;;;;;;;5032552;28;20031;-74
2022/10/07 07:03:04;;;;;;;18.85;7.40;;;;;;;;;;5031539;28;20056;-74
2022/10/07 07:05:35;;;;;;;17.17;8.25;;;;;;;;;;5033017;28;20036;-75
2022/10/07 07:08:01;;;;;;;19.45;8.52;;;;;;;;;;5031684;28;20103;-74
2022/10/07 07:10:27;;;;;;;19.80;8.63;;;;;;;;;;5039795;28;20025;-74
2022/10/07 07:12:54;;;;;;;11.82;7.45;;;;;;;;;;5049987;28;20409;-74
2022/10/07 07:15:21;;;;;;;16.70;8.43;;;;;;;;;;5046060;28;20024;-74
2022/10/07 07:17:47;;;;;;;13.75;7.25;;;;;;;;;;5031127;28;20032;-75
2022/10/07 07:20:14;;;;;;;13.88;6.90;;;;;;;;;;5031613;28;20044;-75
2022/10/07 07:22:42;;;;;;;13.45;6.88;;;;;;;;;;5031328;28;20036;-75
2022/10/07 07:25:08;;;;;;;10.07;6.00;;;;;;;;;;5031567;28;20029;-75
2022/10/07 07:27:35;;;;;;;9.23;5.65;;;;;;;;;;5026864;28;20026;-75
2022/10/07 07:30:02;;;;;;;8.07;5.20;;;;;;;;;;5011640;28;20022;-74
2022/10/07 07:32:31;;;;;;;10.77;4.82;;;;;;;;;;5011696;28;20018;-75
2022/10/07 07:35:00;;;;;;;10.32;4.78;;;;;;;;;;5011628;28;20025;-74
2022/10/07 07:37:29;;;;;;;9.68;4.13;;;;;;;;;;5011265;28;20029;-75
2022/10/07 07:39:56;;;;;;;11.55;4.53;;;;;;;;;;5010739;28;20367;-74
2022/10/07 07:42:22;;;;;;;9.38;4.10;;;;;;;;;;5029966;28;20025;-74
2022/10/07 07:44:48;;;;;;;11.68;3.88;;;;;;;;;;5031111;28;20039;-74
2022/10/07 07:47:15;;;;;;;8.30;4.30;;;;;;;;;;5030983;28;20498;-73
2022/10/07 07:49:42;;;;;;;9.15;3.25;;;;;;;;;;5031190;28;20024;-73
2022/10/07 07:52:09;;;;;;;20.27;4.10;;;;;;;;;;5013513;28;20037;-74
2022/10/07 07:54:36;;;;;;;7.70;3.45;;;;;;;;;;5030960;28;20024;-74
2022/10/07 07:57:03;;;;;;;14.07;3.88;;;;;;;;;;5030913;28;20029;-74
2022/10/07 07:59:31;;;;;;;10.75;3.80;;;;;;;;;;5030778;28;20409;-74
2022/10/07 08:01:57;;;;;;;8.77;4.07;;;;;;;;;;5031192;28;20052;-74
2022/10/07 08:04:24;;;;;;;11.32;3.13;;;;;;;;;;5030973;28;20363;-74
2022/10/07 08:06:51;;;;;;;12.27;3.78;;;;;;;;;;5030465;28;20021;-74
2022/10/07 08:09:17;;;;;;;8.43;3.28;;;;;;;;;;5030946;28;20483;-74
2022/10/07 08:11:44;;;;;;;6.75;3.47;;;;;;;;;;5030580;28;20022;-74
2022/10/07 08:14:14;;;;;;;7.10;3.13;;;;;;;;;;5029559;28;20049;-74
2022/10/07 08:16:42;;;;;;;12.75;3.63;;;;;;;;;;5030578;28;20521;-75
2022/10/07 08:19:11;;;;;;;6.55;2.95;;;;;;;;;;5030837;28;20049;-74
2022/10/07 08:21:37;;;;;;;12.98;3.25;;;;;;;;;;5030476;28;20025;-74
2022/10/07 08:24:05;;;;;;;9.77;2.90;;;;;;;;;;5030674;28;20508;-74
2022/10/07 08:26:32;;;;;;;7.28;3.20;;;;;;;;;;5029917;28;20047;-74
2022/10/07 08:29:00;;;;;;;6.10;3.15;;;;;;;;;;5030607;28;20500;-74
2022/10/07 08:31:28;;;;;;;10.65;3.17;;;;;;;;;;5030652;28;20401;-74
2022/10/07 08:33:55;;;;;;;7.72;3.00;;;;;;;;;;5029991;28;20022;-74
2022/10/07 08:36:23;;;;;;;7.70;3.20;;;;;;;;;;5029488;28;20030;-75
2022/10/07 08:38:49;;;;;;;5.82;3.08;;;;;;;;;;5029057;28;20063;-74
2022/10/07 08:41:35;;;;;;;5.75;3.13;;;;;;;;;;5030748;28;20033;-75
2022/10/07 08:44:16;;;;;;;10.52;3.10;;;;;;;;;;5029722;28;20025;-75
2022/10/07 08:47:08;;;;;;;10.07;3.05;;;;;;;;;;5030015;28;20026;-75
2022/10/07 08:49:35;;;;;;;6.90;3.10;;;;;;;;;;5030069;28;20036;-74
2022/10/07 08:52:34;;;;;;;9.70;2.60;;;;;;;;;;5031568;28;20027;-74
2022/10/07 08:55:01;;;;;;;7.75;2.33;;;;;;;;;;5011956;28;20040;-75
2022/10/07 08:57:36;;;;;;;6.30;2.63;;;;;;;;;;5012031;28;20041;-74
2022/10/07 09:00:05;;;;;;;6.40;2.85;;;;;;;;;;5011442;28;20044;-74
2022/10/07 09:02:55;;;;;;;6.07;3.00;;;;;;;;;;5011831;28;20037;-74
2022/10/07 09:05:21;;;;;;;9.48;3.30;;;;;;;;;;5020428;28;20283;-74
2022/10/07 09:07:49;;;;;;;9.48;3.40;;;;;;;;;;5031458;28;20032;-74
2022/10/07 09:10:30;;;;;;;5.10;2.60;;;;;;;;;;5031702;28;20029;-74
2022/10/07 09:13:01;;;;;;;18.40;3.33;;;;;;;;;;5031695;28;20063;-74
2022/10/07 09:15:43;;;;;;;9.95;3.03;;;;;;;;;;5031278;28;20047;-75
2022/10/07 09:18:18;;;;;;;8.32;2.78;;;;;;;;;;5030877;28;20057;-74
2022/10/07 09:20:46;;;;;;;9.25;2.95;;;;;;;;;;5031434;28;20478;-74
2022/10/07 09:23:18;;;;;;;8.00;2.83;;;;;;;;;;5031273;28;20036;-74
2022/10/07 09:25:44;;;;;;;10.80;3.00;;;;;;;;;;5031406;28;20096;-73
2022/10/07 09:28:15;;;;;;;9.40;2.85;;;;;;;;;;5031201;28;20025;-75
2022/10/07 09:30:41;;;;;;;15.55;3.22;;;;;;;;;;5032758;28;20042;-74
2022/10/07 09:33:15;;;;;;;10.48;2.80;;;;;;;;;;5033246;28;20026;-75
2022/10/07 09:35:46;;;;;;;6.60;3.00;;;;;;;;;;5033435;28;20493;-74
2022/10/07 09:38:12;;;;;;;10.50;3.70;;;;;;;;;;5033423;28;20445;-75
2022/10/07 09:41:13;;;;;;;7.38;3.05;;;;;;;;;;5033306;28;20025;-74
2022/10/07 09:43:28;;;;;;;6.68;2.97;;;;;;;;;;5032726;28;20025;-75
2022/10/07 09:45:56;;;;;;;11.60;3.20;;;;;;;;;;5033034;28;20020;-74
2022/10/07 09:48:27;;;;;;;13.20;3.30;;;;;;;;;;5032909;28;20025;-75
2022/10/07 09:50:53;;;;;;;;;;;;;;;;;;5033410;28;20050;-75
2022/10/07 09:53:21;;;;;;;11.85;3.25;;;;;;;;;;5033183;28;19909;-75
2022/10/07 09:55:48;;;;;;;13.23;3.10;;;;;;;;;;5032857;28;20033;-74
2022/10/07 09:58:30;;;;;;;9.18;3.15;;;;;;;;;;5033093;28;20068;-74
2022/10/07 10:01:00;;;;;;;6.78;3.45;;;;;;;;;;5032021;28;20044;-74
2022/10/07 10:03:34;;;;;;;9.60;3.25;;;;;;;;;;5032708;28;20031;-75
2022/10/07 10:06:01;;;;;;;8.80;3.60;;;;;;;;;;5032807;28;20484;-74
2022/10/07 10:08:30;;;;;;;6.47;3.20;;;;;;;;;;5033213;28;20083;-74
2022/10/07 10:10:57;;;;;;;10.23;3.20;;;;;;;;;;5031562;28;20036;-75
2022/10/07 10:13:29;;;;;;;11.85;3.30;;;;;;;;;;5032769;28;20045;-74
2022/10/07 10:15:55;;;;;;;8.38;2.95;;;;;;;;;;5032284;28;20033;-74
2022/10/07 10:18:34;;;;;;;9.07;2.95;;;;;;;;;;5031581;28;20413;-74
2022/10/07 10:21:20;;;;;;;12.90;3.05;;;;;;;;;;5032018;28;20017;-74
2022/10/07 10:23:51;;;;;;;11.35;3.25;;;;;;;;;;5030613;28;20038;-74
2022/10/07 10:26:30;;;;;;;12.40;2.80;;;;;;;;;;5032754;28;20017;-75
2022/10/07 10:29:05;;;;;;;5.32;2.60;;;;;;;;;;5032517;28;20029;-74
2022/10/07 10:31:52;;;;;;;9.73;3.10;;;;;;;;;;5032132;28;20367;-75
2022/10/07 10:34:23;;;;;;;7.97;2.88;;;;;;;;;;5010663;28;20042;-74
2022/10/07 10:36:54;;;;;;;8.52;2.65;;;;;;;;;;5009959;28;20453;-74
2022/10/07 10:39:29;;;;;;;9.07;2.60;;;;;;;;;;5010301;28;20049;-74
2022/10/07 10:41:57;;;;;;;14.75;3.35;;;;;;;;;;5010255;28;20030;-74
2022/10/07 10:44:31;;;;;;;8.55;2.95;;;;;;;;;;5009777;28;20080;-74
2022/10/07 10:47:06;;;;;;;11.55;2.70;;;;;;;;;;5009937;28;20030;-74
2022/10/07 10:49:37;;;;;;;9.73;2.90;;;;;;;;;;5010213;28;20037;-75
2022/10/07 10:52:06;;;;;;;14.30;2.95;;;;;;;;;;5010245;28;20042;-75
2022/10/07 10:54:42;;;;;;;12.55;2.35;;;;;;;;;;5010130;28;20496;-75
2022/10/07 10:57:10;;;;;;;7.65;2.60;;;;;;;;;;5010302;28;20060;-74
2022/10/07 10:59:43;;;;;;;13.50;3.03;;;;;;;;;;5009680;28;20051;-75
2022/10/07 11:02:15;;;;;;;7.68;2.63;;;;;;;;;;5010158;28;20033;-75
2022/10/07 11:04:45;;;;;;;6.13;2.38;;;;;;;;;;5019857;28;20045;-74
2022/10/07 11:07:17;;;;;;;5.63;2.77;;;;;;;;;;5029803;28;20045;-74
2022/10/07 11:09:47;;;;;;;6.30;2.58;;;;;;;;;;5029644;28;20033;-75
2022/10/07 11:12:21;;;;;;;6.20;2.40;;;;;;;;;;5027315;28;20042;-74
2022/10/07 11:14:53;;;;;;;8.85;2.50;;;;;;;;;;5030768;28;20022;-74
2022/10/07 11:17:22;;;;;;;4.95;1.85;;;;;;;;;;5031792;28;20026;-75
2022/10/07 11:20:07;;;;;;;5.50;1.98;;;;;;;;;;5031589;28;20037;-75
2022/10/07 11:22:38;;;;;;;7.85;2.10;;;;;;;;;;5031541;28;20025;-74
2022/10/07 11:25:08;;;;;;;5.13;1.50;;;;;;;;;;5031635;28;20055;-75
2022/10/07 11:27:35;;;;;;;3.42;1.67;;;;;;;;;;5030477;28;20433;-75
2022/10/07 11:30:16;;;;;;;5.63;1.70;;;;;;;;;;5029890;28;20090;-75
2022/10/07 11:32:42;;;;;;;7.40;1.83;;;;;;;;;;5031441;28;20022;-75
2022/10/07 11:35:22;;;;;;;9.10;1.73;;;;;;;;;;5031348;28;20036;-75
2022/10/07 11:37:51;;;;;;;7.25;2.00;;;;;;;;;;5031255;28;20018;-76
2022/10/07 11:40:19;;;;;;;5.17;1.20;;;;;;;;;;5031131;28;20045;-75
2022/10/07 11:42:48;;;;;;;4.07;1.20;;;;;;;;;;5030732;28;20060;-74
2022/10/07 11:45:17;;;;;;;3.38;1.40;;;;;;;;;;5030777;28;20409;-74
2022/10/07 11:47:50;;;;;;;3.38;1.30;;;;;;;;;;5031349;28;20029;-73
2022/10/07 11:50:16;;;;;;;2.92;1.00;;;;;;;;;;5031448;28;20041;-75
2022/10/07 11:52:44;;;;;;;4.03;1.30;;;;;;;;;;5031052;28;20048;-74
2022/10/07 11:55:19;;;;;;;3.65;1.30;;;;;;;;;;5030870;28;20033;-75
2022/10/07 11:57:51;;;;;;;4.97;1.27;;;;;;;;;;5030821;28;20378;-75
2022/10/07 12:00:25;;;;;;;5.13;1.33;;;;;;;;;;5038766;28;20033;-75
2022/10/07 12:02:52;;;;;;;3.70;1.17;;;;;;;;;;5030888;28;20039;-75
2022/10/07 12:05:33;;;;;;;3.38;1.20;;;;;;;;;;5030677;28;20036;-75
2022/10/07 12:08:20;;;;;;;4.53;1.40;;;;;;;;;;5030678;28;20027;-75
2022/10/07 12:10:46;;;;;;;3.72;1.23;;;;;;;;;;5030644;28;20040;-75
2022/10/07 12:13:13;;;;;;;4.93;1.35;;;;;;;;;;5030289;28;20510;-75
2022/10/07 12:15:43;;;;;;;6.38;1.30;;;;;;;;;;5030815;28;20039;-75
2022/10/07 12:18:09;;;;;;;;;;;;;;;;;;5031220;28;20475;-75
2022/10/07 12:20:45;;;;;;;3.47;1.33;;;;;;;;;;5030760;28;19912;-75
2022/10/07 12:23:17;;;;;;;3.33;1.08;;;;;;;;;;5030873;28;20044;-75
2022/10/07 12:25:47;;;;;;;4.20;1.30;;;;;;;;;;5031167;28;20494;-75
2022/10/07 12:28:23;;;;;;;3.70;1.13;;;;;;;;;;5033421;28;20037;-75
2022/10/07 12:30:50;;;;;;;2.72;1.10;;;;;;;;;;5035065;28;20033;-76
2022/10/07 12:33:25;;;;;;;5.38;1.30;;;;;;;;;;5034577;28;20026;-75
2022/10/07 12:35:52;;;;;;;9.02;1.20;;;;;;;;;;5034810;28;20025;-75
2022/10/07 12:38:22;;;;;;;4.13;1.20;;;;;;;;;;5034576;28;20056;-75
2022/10/07 12:40:48;;;;;;;;;;;;;;;;;;5034013;28;20037;-76
2022/10/07 12:43:44;;;;;;;4.32;1.42;;;;;;;;;;5034408;28;19909;-76
2022/10/07 12:46:13;;;;;;;3.92;1.30;;;;;;;;;;5012262;28;20053;-75
2022/10/07 12:49:00;;;;;;;8.00;1.30;;;;;;;;;;5012152;28;20032;-76
2022/10/07 12:51:36;;;;;;;6.25;1.40;;;;;;;;;;5012132;28;20474;-76
2022/10/07 12:54:04;;;;;;;5.35;1.73;;;;;;;;;;5012427;28;20018;-76
2022/10/07 12:56:30;;;;;;;6.05;1.40;;;;;;;;;;5011602;28;20041;-76
2022/10/07 13:02:07;;;;;;;6.40;1.42;;;;;;;;;;5012047;28;20018;-75
2022/10/07 13:04:39;;;;;;;4.53;1.30;;;;;;;;;;5011704;28;20079;-76
2022/10/07 13:07:08;;;;;;;5.35;1.48;;;;;;;;;;5009976;28;20037;-75
2022/10/07 13:09:45;;;;;;;4.90;1.20;;;;;;;;;;5011705;28;20030;-76
2022/10/07 13:12:11;;;;;;;4.88;1.40;;;;;;;;;;5010546;28;20028;-76
2022/10/07 13:14:51;;;;;;;3.88;1.60;;;;;;;;;;5011532;28;20038;-75
2022/10/07 13:17:25;;;;;;;8.63;1.27;;;;;;;;;;5012568;28;20034;-75
2022/10/07 13:19:51;;;;;;;6.80;1.20;;;;;;;;;;5011756;28;20444;-74
2022/10/07 13:22:18;;;;;;;7.50;1.33;;;;;;;;;;5021302;28;20034;-75
2022/10/07 13:24:50;;;;;;;3.33;1.42;;;;;;;;;;5033996;28;20033;-75
2022/10/07 13:27:27;;;;;;;4.57;1.58;;;;;;;;;;5034643;28;20021;-76
2022/10/07 13:29:55;;;;;;;3.55;1.30;;;;;;;;;;5034085;28;20470;-74
2022/10/07 13:32:23;;;;;;;8.35;1.42;;;;;;;;;;5034222;28;20022;-75
2022/10/07 13:34:53;;;;;;;4.57;1.20;;;;;;;;;;5034523;28;20036;-76
2022/10/07 13:37:33;;;;;;;5.78;1.50;;;;;;;;;;5031863;28;20040;-75
2022/10/07 13:40:19;;;;;;;6.97;1.37;;;;;;;;;;5024879;28;20398;-74
2022/10/07 13:42:45;;;;;;;3.92;1.25;;;;;;;;;;5014244;28;20034;-76
2022/10/07 13:45:13;;;;;;;6.85;1.42;;;;;;;;;;5014289;28;20026;-75
2022/10/07 13:47:40;;;;;;;4.70;1.30;;;;;;;;;;5018781;28;20044;-75
2022/10/07 13:50:07;;;;;;;4.75;1.40;;;;;;;;;;5033746;28;20028;-75
2022/10/07 13:52:35;;;;;;;7.47;1.48;;;;;;;;;;5032608;28;20033;-75
2022/10/07 13:55:02;;;;;;;12.27;1.60;;;;;;;;;;5033881;28;20029;-75
2022/10/07 13:57:30;;;;;;;3.60;1.40;;;;;;;;;;5032343;28;20039;-75
2022/10/07 13:59:58;;;;;;;9.23;1.75;;;;;;;;;;5033518;28;20035;-75
2022/10/07 14:02:25;;;;;;;4.65;1.30;;;;;;;;;;5033647;28;20021;-75
2022/10/07 14:05:02;;;;;;;5.53;1.40;;;;;;;;;;5033591;28;20485;-75
2022/10/07 14:07:28;;;;;;;6.68;1.60;;;;;;;;;;5033088;28;20021;-74
2022/10/07 14:09:58;;;;;;;6.53;1.48;;;;;;;;;;5032964;28;20032;-76
2022/10/07 14:12:30;;;;;;;7.43;1.73;;;;;;;;;;5033467;28;20037;-75
2022/10/07 14:15:01;;;;;;;5.38;1.73;;;;;;;;;;5033460;28;20475;-75
2022/10/07 14:17:33;;;;;;;5.82;1.55;;;;;;;;;;5033445;28;20082;-75
2022/10/07 14:20:04;;;;;;;3.88;1.20;;;;;;;;;;5033018;28;20048;-75
2022/10/07 14:22:36;;;;;;;3.88;1.15;;;;;;;;;;5033281;28;20025;-75
2022/10/07 14:25:03;;;;;;;4.63;1.35;;;;;;;;;;5033220;28;20033;-75
2022/10/07 14:27:45;;;;;;;5.82;1.20;;;;;;;;;;5033132;28;20039;-75
2022/10/07 14:35:17;;;;;;;2.75;1.50;;;;;;;;;;5032890;28;20490;-74
2022/10/07 14:36:23;;;;;;;6.95;1.83;;;;;;;;;;5032772;28;20034;-75
2022/10/07 14:38:50;;;;;;;10.23;1.58;;;;;;;;;;5032527;28;20064;-75
2022/10/07 14:41:17;;;;;;;5.85;1.45;;;;;;;;;;5031955;28;20358;-75
2022/10/07 14:43:46;;;;;;;6.30;1.50;;;;;;;;;;5032825;28;20026;-76
2022/10/07 14:46:22;;;;;;;3.92;1.20;;;;;;;;;;5033051;28;20260;-75
2022/10/07 14:48:50;;;;;;;4.53;1.27;;;;;;;;;;5032142;28;20479;-76
2022/10/07 14:51:17;;;;;;;2.58;1.27;;;;;;;;;;5031973;28;20030;-75
2022/10/07 14:53:48;;;;;;;8.70;1.67;;;;;;;;;;5032757;28;20067;-75
2022/10/07 14:56:22;;;;;;;4.80;1.35;;;;;;;;;;5032594;28;20021;-75
2022/10/07 14:58:49;;;;;;;5.50;1.60;;;;;;;;;;5032497;28;20034;-75
2022/10/07 15:01:15;;;;;;;4.70;1.38;;;;;;;;;;5032821;28;20036;-75
2022/10/07 15:03:41;;;;;;;4.75;1.50;;;;;;;;;;5032853;28;20027;-75
2022/10/07 15:06:08;;;;;;;5.38;1.60;;;;;;;;;;5032405;28;20479;-75